createdAt,value
2019-04-30T00:05:37.421Z,1003.00
2019-04-30T00:15:37.372Z,1002.93
2019-04-30T00:25:37.333Z,1002.88
2019-04-30T00:35:37.419Z,1002.86
2019-04-30T00:45:40.010Z,1002.81
2019-04-30T00:55:40.275Z,1002.73
2019-04-30T01:05:39.700Z,1002.68
2019-04-30T01:15:39.044Z,1002.63
2019-04-30T01:25:38.859Z,1002.64
2019-04-30T01:35:38.217Z,1002.64
2019-04-30T01:45:38.678Z,1002.59
2019-04-30T01:55:39.015Z,1002.54
2019-04-30T02:05:38.611Z,1002.58
2019-04-30T02:15:38.991Z,1002.62
2019-04-30T02:25:39.616Z,1002.50
2019-04-30T02:35:40.461Z,1002.55
2019-04-30T02:45:39.939Z,1002.57
2019-04-30T02:55:40.255Z,1002.54
2019-04-30T03:05:39.238Z,1002.55
2019-04-30T03:15:39.521Z,1002.50
2019-04-30T03:25:40.345Z,1002.41
2019-04-30T03:35:46.565Z,1002.43
2019-04-30T03:45:40.010Z,1002.45
2019-04-30T03:55:39.862Z,1002.34
2019-04-30T04:05:39.727Z,1002.35
2019-04-30T04:15:39.711Z,1002.37
2019-04-30T04:25:39.737Z,1002.37
2019-04-30T04:35:39.311Z,1002.35
2019-04-30T04:55:39.846Z,1002.39
2019-04-30T05:05:39.732Z,1002.43
2019-04-30T05:15:38.958Z,1002.42
2019-04-30T05:25:38.989Z,1002.51
2019-04-30T05:35:38.834Z,1002.50
2019-04-30T05:45:39.020Z,1002.64
2019-04-30T05:55:39.368Z,1002.58
2019-04-30T06:05:39.331Z,1002.59
2019-04-30T06:15:39.104Z,1002.61
2019-04-30T06:25:55.703Z,1002.67
2019-04-30T06:35:39.071Z,1002.62
2019-04-30T06:45:38.791Z,1002.65
2019-04-30T06:55:39.169Z,1002.74
2019-04-30T07:05:38.915Z,1002.78
2019-04-30T07:15:38.999Z,1002.77
2019-04-30T07:25:39.087Z,1002.77
2019-04-30T07:35:39.750Z,1002.84
2019-04-30T07:45:39.298Z,1002.91
2019-04-30T07:55:39.266Z,1002.90
2019-04-30T08:05:40.223Z,1002.96
2019-04-30T08:15:37.469Z,1003.11
2019-04-30T08:25:39.090Z,1003.08
2019-04-30T08:35:37.383Z,1003.15
2019-04-30T08:45:38.575Z,1003.19
2019-04-30T08:55:39.083Z,1003.18
2019-04-30T09:05:38.617Z,1002.99
2019-04-30T09:15:37.345Z,1002.99
2019-04-30T09:25:39.659Z,1002.98
2019-04-30T09:35:39.375Z,1003.06
2019-04-30T09:45:38.517Z,1002.91
2019-04-30T09:55:38.926Z,1002.93
2019-04-30T10:05:39.137Z,1002.97
2019-04-30T10:15:37.490Z,1002.80
2019-04-30T10:25:37.557Z,1002.81
2019-04-30T10:35:38.535Z,1002.76
2019-04-30T10:45:38.811Z,1002.70
2019-04-30T10:55:38.735Z,1002.60
2019-04-30T11:05:41.018Z,1002.58
2019-04-30T11:15:39.309Z,1002.45
2019-04-30T11:25:39.926Z,1002.33
2019-04-30T11:35:39.349Z,1002.18
2019-04-30T11:45:38.849Z,1002.07
2019-04-30T11:55:39.024Z,1001.96
2019-04-30T12:05:38.933Z,1001.87
2019-04-30T12:15:37.527Z,1001.88
2019-04-30T12:25:38.821Z,1001.71
2019-04-30T12:35:37.553Z,1001.66
2019-04-30T12:45:39.308Z,1001.68
2019-04-30T12:55:39.179Z,1001.44
2019-04-30T13:05:39.463Z,1001.44
2019-04-30T13:15:37.676Z,1001.34
2019-04-30T13:25:48.929Z,1001.23
2019-04-30T13:35:38.976Z,1001.19
2019-04-30T13:45:38.819Z,1001.00
2019-04-30T13:55:45.703Z,1000.96
2019-04-30T14:05:37.557Z,1000.89
2019-04-30T14:15:37.604Z,1000.79
2019-04-30T14:25:38.651Z,1000.67
2019-04-30T14:35:38.639Z,1000.59
2019-04-30T14:45:39.032Z,1000.63
2019-04-30T14:55:38.941Z,1000.47
2019-04-30T15:05:43.605Z,1000.42
2019-04-30T15:15:39.135Z,1000.34
2019-04-30T15:25:38.764Z,1000.24
2019-04-30T15:35:37.562Z,1000.14
2019-04-30T15:45:39.151Z,1000.14
2019-04-30T15:55:37.607Z,1000.10
2019-04-30T16:05:37.537Z,1000.01
2019-04-30T16:15:38.559Z,1000.02
2019-04-30T16:25:39.049Z,999.90
2019-04-30T16:35:37.565Z,999.85
2019-04-30T16:45:38.951Z,999.84
2019-04-30T16:55:37.611Z,999.82
2019-04-30T17:05:39.490Z,999.81
2019-04-30T17:15:38.350Z,999.77
2019-04-30T17:25:37.640Z,999.80
2019-04-30T17:35:38.774Z,999.77
2019-04-30T17:45:39.196Z,999.82
2019-04-30T17:55:39.124Z,999.91
2019-04-30T18:05:39.113Z,1000.01
2019-04-30T18:15:37.570Z,1000.07
2019-04-30T18:25:37.594Z,1000.06
2019-04-30T18:35:38.831Z,1000.17
2019-04-30T18:45:39.372Z,1000.23
2019-04-30T18:55:37.587Z,1000.27
2019-04-30T19:05:39.344Z,1000.39
2019-04-30T19:16:01.430Z,1000.48
2019-04-30T19:25:38.615Z,1000.58
2019-04-30T19:35:37.599Z,1000.72
2019-04-30T19:45:37.654Z,1000.74
2019-04-30T19:55:39.256Z,1000.80
2019-04-30T20:05:39.458Z,1000.91
2019-04-30T20:15:39.201Z,1000.85
2019-04-30T20:25:37.581Z,1000.86
2019-04-30T20:35:39.012Z,1000.76
2019-04-30T20:45:37.533Z,1000.77
2019-04-30T20:55:40.509Z,1000.72
2019-04-30T21:05:37.605Z,1000.66
2019-04-30T21:15:39.438Z,1000.57
2019-04-30T21:25:38.725Z,1000.54
2019-04-30T21:35:37.553Z,1000.50
2019-04-30T21:45:39.475Z,1000.44
2019-04-30T21:55:39.637Z,1000.39
2019-04-30T22:05:37.566Z,1000.40
2019-04-30T22:15:37.522Z,1000.41
2019-04-30T22:25:39.234Z,1000.40
2019-04-30T22:35:37.542Z,1000.29
2019-04-30T22:45:38.247Z,1000.25
2019-04-30T22:55:37.608Z,1000.16
2019-04-30T23:05:37.530Z,1000.18
2019-04-30T23:15:37.534Z,1000.13
2019-04-30T23:25:37.600Z,1000.04
2019-04-30T23:35:37.544Z,1000.02
2019-04-30T23:45:37.622Z,999.96
2019-04-30T23:55:37.578Z,999.87
